Time;durP1;ratioP1;P1;durP2;ratioP2;P2;SDS_P1;SDS_P2;PMS_P1;PMS_P2;Temp;Humidity;BMP_temperature;BMP_pressure;BME280_temperature;BME280_humidity;BME280_pressure;Samples;Min_cycle;Max_cycle;Signal;HPM_P1;HPM_P2
2023/07/20 00:02:09;;;;;;;9.18;6.35;;;;;;;17.23;89.01;100679.28;4969629;28;20138;-78
2023/07/20 00:04:36;;;;;;;10.68;6.68;;;;;;;17.19;89.19;100672.75;4971796;28;20106;-79
2023/07/20 00:07:02;;;;;;;11.57;6.05;;;;;;;17.16;89.23;100678.44;4955959;28;20106;-79
2023/07/20 00:09:31;;;;;;;12.50;5.97;;;;;;;17.18;89.57;100679.03;4982230;23;20588;-79
2023/07/20 00:11:59;;;;;;;10.40;5.47;;;;;;;17.24;89.62;100683.53;4954810;28;20055;-78
2023/07/20 00:14:26;;;;;;;10.02;6.53;;;;;;;17.31;89.18;100683.56;4947785;28;20482;-79
2023/07/20 00:16:56;;;;;;;8.88;6.13;;;;;;;17.33;89.13;100676.25;4954827;28;20528;-79
2023/07/20 00:19:25;;;;;;;10.10;5.78;;;;;;;17.34;89.19;100678.72;4955035;29;20423;-80
2023/07/20 00:21:51;;;;;;;9.57;6.20;;;;;;;17.38;89.19;100679.13;4956617;29;20099;-80
2023/07/20 00:24:18;;;;;;;10.20;6.00;;;;;;;17.35;89.24;100680.34;4954941;29;20134;-78
2023/07/20 00:26:46;;;;;;;8.43;5.85;;;;;;;17.36;89.48;100679.31;4957499;29;20582;-81
2023/07/20 00:29:13;;;;;;;7.68;5.78;;;;;;;17.31;89.41;100679.09;4955597;28;20047;-80
2023/07/20 00:31:40;;;;;;;11.25;5.93;;;;;;;17.32;89.29;100686.03;4955221;29;20157;-79
2023/07/20 00:34:07;;;;;;;10.52;6.53;;;;;;;17.26;89.33;100684.16;4954681;29;20078;-80
2023/07/20 00:36:35;;;;;;;10.02;5.80;;;;;;;17.24;89.72;100683.53;4957471;29;20404;-78
2023/07/20 00:39:01;;;;;;;7.22;5.95;;;;;;;17.22;90.08;100675.00;4955697;29;20075;-80
2023/07/20 00:41:29;;;;;;;7.50;5.97;;;;;;;17.24;90.27;100678.25;4954811;29;20043;-79
2023/07/20 00:43:55;;;;;;;11.50;5.90;;;;;;;17.22;90.58;100681.09;4954980;29;20430;-79
2023/07/20 00:46:24;;;;;;;12.77;6.35;;;;;;;17.19;90.70;100676.22;4954534;28;20478;-79
2023/07/20 00:48:52;;;;;;;7.97;5.70;;;;;;;17.18;90.76;100679.03;4954207;29;20519;-79
2023/07/20 00:51:19;;;;;;;10.98;6.30;;;;;;;17.18;91.21;100676.41;4953967;29;20157;-78
2023/07/20 00:53:47;;;;;;;11.13;6.28;;;;;;;17.13;91.16;100678.81;4956449;29;20058;-79
2023/07/20 00:56:14;;;;;;;12.68;6.07;;;;;;;17.15;91.30;100679.44;4954702;29;20082;-80
2023/07/20 00:58:41;;;;;;;8.93;6.05;;;;;;;17.19;91.23;100678.03;4954580;29;20079;-79
2023/07/20 01:01:07;;;;;;;11.60;6.05;;;;;;;17.19;91.33;100686.78;4955490;29;20141;-80
2023/07/20 01:03:34;;;;;;;10.45;5.85;;;;;;;17.22;91.49;100682.94;4954557;29;20057;-79
2023/07/20 01:06:11;;;;;;;11.65;6.50;;;;;;;17.32;91.19;100686.03;4954101;29;20583;-80
2023/07/20 01:08:44;;;;;;;10.25;5.68;;;;;;;17.34;91.30;100677.88;4953558;28;20579;-79
2023/07/20 01:11:22;;;;;;;8.75;6.00;;;;;;;17.39;91.35;100680.75;4954062;29;20504;-79
2023/07/20 01:13:49;;;;;;;7.75;5.40;;;;;;;17.42;91.36;100680.34;4954101;29;20142;-79
2023/07/20 01:16:15;;;;;;;11.30;6.50;;;;;;;17.44;91.16;100680.97;4953942;29;20065;-79
2023/07/20 01:18:42;;;;;;;10.45;5.90;;;;;;;17.33;91.26;100686.84;4953655;29;20058;-79
2023/07/20 01:21:15;;;;;;;10.40;5.72;;;;;;;17.25;91.74;100679.88;4953234;29;20062;-79
2023/07/20 01:24:22;;;;;;;9.77;5.72;;;;;;;17.23;91.94;100687.19;4955625;28;20130;-79
2023/07/20 01:27:15;;;;;;;9.98;6.05;;;;;;;17.16;92.14;100691.66;4953967;29;20043;-77
2023/07/20 01:30:11;;;;;;;9.00;5.53;;;;;;;17.15;92.51;100690.00;4949493;29;20086;-79
2023/07/20 01:32:43;;;;;;;9.05;5.82;;;;;;;17.13;92.80;100694.69;4953367;28;20130;-78
2023/07/20 01:35:14;;;;;;;8.13;5.43;;;;;;;17.14;92.71;100696.31;4954865;29;20468;-80
2023/07/20 01:37:42;;;;;;;8.15;5.32;;;;;;;17.19;92.94;100686.78;4954683;29;20047;-79
2023/07/20 01:40:10;;;;;;;7.78;4.80;;;;;;;17.14;92.95;100689.19;4954417;28;20502;-79
2023/07/20 01:42:36;;;;;;;6.57;4.80;;;;;;;17.23;93.17;100684.56;4955051;29;20490;-80
2023/07/20 01:45:03;;;;;;;10.45;4.97;;;;;;;17.24;93.54;100686.19;4954929;29;20141;-78
2023/07/20 01:47:30;;;;;;;7.72;4.90;;;;;;;17.26;93.56;100684.16;4955788;29;20567;-80
2023/07/20 01:49:58;;;;;;;6.18;5.13;;;;;;;17.27;93.70;100677.03;4955679;29;20054;-79
2023/07/20 01:52:25;;;;;;;6.18;4.85;;;;;;;17.24;93.93;100678.25;4953445;29;20511;-79
2023/07/20 01:54:51;;;;;;;7.13;4.90;;;;;;;17.16;94.31;100683.72;4953448;29;20139;-78
2023/07/20 01:57:18;;;;;;;6.90;4.72;;;;;;;17.12;94.57;100685.13;4953035;29;20047;-79
2023/07/20 01:59:44;;;;;;;9.00;4.97;;;;;;;17.00;94.89;100676.16;4952877;29;20098;-79
2023/07/20 02:02:11;;;;;;;10.57;5.65;;;;;;;16.82;95.84;100695.16;4952573;29;20134;-78
2023/07/20 02:04:37;;;;;;;7.10;5.00;;;;;;;16.69;96.50;100690.59;4953894;29;20051;-79
2023/07/20 02:07:06;;;;;;;7.45;4.60;;;;;;;16.62;97.10;100691.53;4952590;29;20055;-78
2023/07/20 02:09:32;;;;;;;7.95;5.85;;;;;;;16.52;97.64;100691.91;4952648;29;20134;-79
2023/07/20 02:11:59;;;;;;;7.95;5.10;;;;;;;16.46;98.09;100679.47;4953227;29;20083;-81
2023/07/20 02:14:26;;;;;;;7.95;5.22;;;;;;;16.42;98.55;100689.59;4956222;28;20432;-79
2023/07/20 02:16:54;;;;;;;9.35;5.55;;;;;;;16.37;98.69;100684.06;4956145;29;20118;-80
2023/07/20 02:19:21;;;;;;;9.20;5.25;;;;;;;16.27;99.11;100681.78;4948772;28;20061;-80
2023/07/20 02:21:48;;;;;;;8.27;5.45;;;;;;;16.23;99.62;100684.97;4961384;29;20143;-81
2023/07/20 02:24:16;;;;;;;9.15;5.25;;;;;;;16.23;100.00;100688.44;4959752;29;20078;-80
2023/07/20 02:26:43;;;;;;;9.55;5.82;;;;;;;16.21;100.00;100674.59;4960017;29;20054;-80
2023/07/20 02:29:11;;;;;;;7.47;5.30;;;;;;;16.11;100.00;100676.75;4959573;29;20150;-78
2023/07/20 02:31:39;;;;;;;9.60;5.35;;;;;;;16.11;100.00;100679.41;4960177;29;20047;-80
2023/07/20 02:34:05;;;;;;;7.75;5.55;;;;;;;16.09;100.00;100685.88;4960436;28;20475;-79
2023/07/20 02:36:32;;;;;;;8.27;5.38;;;;;;;16.05;100.00;100695.22;4959896;28;20227;-81
2023/07/20 02:38:59;;;;;;;13.38;5.95;;;;;;;16.03;100.00;100684.03;4959266;29;20051;-80
2023/07/20 02:41:27;;;;;;;8.52;5.95;;;;;;;16.01;100.00;100693.94;4959524;28;20133;-79
2023/07/20 02:43:53;;;;;;;14.20;6.78;;;;;;;15.99;100.00;100691.50;4960261;29;20050;-80
2023/07/20 02:46:20;;;;;;;13.73;6.15;;;;;;;15.99;100.00;100693.31;4960093;29;20489;-80
2023/07/20 02:48:46;;;;;;;11.52;5.82;;;;;;;16.01;100.00;100678.94;4959900;29;20115;-80
2023/07/20 02:51:13;;;;;;;10.95;6.03;;;;;;;15.96;100.00;100678.69;4959866;29;20470;-80
2023/07/20 02:53:40;;;;;;;10.02;5.82;;;;;;;16.03;100.00;100681.38;4959977;29;20130;-80
2023/07/20 02:56:06;;;;;;;11.45;5.97;;;;;;;15.96;100.00;100676.03;4960370;29;20506;-80
2023/07/20 02:58:36;;;;;;;11.10;6.20;;;;;;;15.92;100.00;100688.81;4965115;29;20051;-80
2023/07/20 03:01:03;;;;;;;10.43;6.32;;;;;;;15.90;100.00;100696.09;4962735;29;20051;-80
2023/07/20 03:03:30;;;;;;;13.43;5.97;;;;;;;15.97;100.00;100704.06;4961788;29;20579;-79
2023/07/20 03:05:59;;;;;;;10.52;6.07;;;;;;;15.95;100.00;100697.34;4961245;29;20086;-80
2023/07/20 03:08:25;;;;;;;10.57;6.07;;;;;;;15.92;100.00;100703.81;4966053;29;20055;-80
2023/07/20 03:10:52;;;;;;;11.00;6.30;;;;;;;15.90;100.00;100711.09;4963147;29;20123;-80
2023/07/20 03:13:18;;;;;;;11.80;6.05;;;;;;;15.88;100.00;100698.09;4962576;29;20141;-80
2023/07/20 03:15:46;;;;;;;10.43;5.78;;;;;;;15.97;100.00;100698.78;4962046;29;20130;-80
2023/07/20 03:18:13;;;;;;;8.38;5.85;;;;;;;16.01;100.00;100700.03;4963087;29;20051;-80
2023/07/20 03:20:39;;;;;;;9.25;6.28;;;;;;;15.98;100.00;100703.06;4963073;28;20417;-80
2023/07/20 03:23:06;;;;;;;10.88;5.93;;;;;;;15.97;100.00;100692.69;4960805;29;20082;-81
2023/07/20 03:25:33;;;;;;;9.18;5.95;;;;;;;15.93;100.00;100700.16;4953946;29;20057;-80
2023/07/20 03:28:00;;;;;;;10.25;5.88;;;;;;;15.92;100.00;100693.25;4959213;29;20472;-80
2023/07/20 03:30:26;;;;;;;13.88;6.40;;;;;;;15.93;100.00;100694.88;4960805;29;20074;-80
2023/07/20 03:32:54;;;;;;;10.43;5.85;;;;;;;15.95;100.00;100700.81;4962952;28;20067;-80
2023/07/20 03:35:21;;;;;;;11.18;6.03;;;;;;;15.97;100.00;100693.50;4966040;29;20083;-80
2023/07/20 03:37:47;;;;;;;13.65;6.63;;;;;;;15.97;100.00;100692.69;4965859;29;20047;-80
2023/07/20 03:40:16;;;;;;;14.13;6.55;;;;;;;15.93;100.00;100702.81;4958544;29;20074;-79
2023/07/20 03:42:43;;;;;;;9.50;5.97;;;;;;;15.89;100.00;100709.47;4951502;29;20055;-80
2023/07/20 03:45:10;;;;;;;14.13;6.22;;;;;;;15.83;100.00;100702.31;4958666;28;20524;-81
2023/07/20 03:47:37;;;;;;;12.35;5.80;;;;;;;15.77;100.00;100718.88;4959170;28;20050;-79
2023/07/20 03:50:05;;;;;;;10.57;6.30;;;;;;;15.74;100.00;100721.88;4958516;29;20059;-80
2023/07/20 03:52:32;;;;;;;13.68;6.30;;;;;;;15.72;100.00;100716.81;4957371;29;20134;-80
2023/07/20 03:54:59;;;;;;;10.02;6.45;;;;;;;15.72;100.00;100723.91;4954866;29;20067;-79
2023/07/20 03:57:25;;;;;;;10.32;6.18;;;;;;;15.76;100.00;100725.16;4957821;29;20058;-80
2023/07/20 03:59:52;;;;;;;11.07;6.18;;;;;;;15.81;100.00;100731.50;4957714;29;20134;-80
2023/07/20 04:02:19;;;;;;;13.40;6.35;;;;;;;15.81;100.00;100728.88;4958201;29;20091;-80
2023/07/20 04:04:45;;;;;;;14.48;6.25;;;;;;;15.89;100.00;100733.22;4958889;29;20133;-80
2023/07/20 04:07:13;;;;;;;14.90;6.80;;;;;;;15.93;100.00;100742.41;4958239;29;20142;-81
2023/07/20 04:09:40;;;;;;;10.00;6.40;;;;;;;15.93;100.00;100740.56;4958069;28;20055;-81
2023/07/20 04:12:08;;;;;;;13.90;6.32;;;;;;;16.05;100.00;100748.00;4958873;29;20500;-80
2023/07/20 04:14:34;;;;;;;12.70;6.22;;;;;;;16.12;100.00;100741.75;4951674;29;20082;-80
2023/07/20 04:17:01;;;;;;;12.27;6.55;;;;;;;16.12;100.00;100746.22;4957531;29;20055;-79
2023/07/20 04:19:28;;;;;;;10.80;6.60;;;;;;;16.18;100.00;100741.00;4957812;29;20154;-80
2023/07/20 04:21:54;;;;;;;11.20;6.57;;;;;;;16.23;100.00;100749.16;4958085;29;20506;-80
2023/07/20 04:24:22;;;;;;;9.80;7.35;;;;;;;16.25;100.00;100748.97;4956180;29;20126;-81
2023/07/20 04:26:49;;;;;;;11.93;7.22;;;;;;;16.31;100.00;100750.03;4957475;29;20587;-80
2023/07/20 04:29:15;;;;;;;15.20;7.50;;;;;;;16.34;100.00;100745.19;4957569;29;20071;-81
2023/07/20 04:31:42;;;;;;;17.23;7.57;;;;;;;16.44;99.72;100747.50;4958186;29;20075;-80
2023/07/20 04:34:08;;;;;;;12.07;7.60;;;;;;;16.50;99.13;100744.13;4957184;29;20082;-80
2023/07/20 04:36:35;;;;;;;12.13;7.32;;;;;;;16.43;98.96;100737.97;4957547;29;20134;-80
2023/07/20 04:39:02;;;;;;;14.13;7.10;;;;;;;16.50;98.74;100747.56;4958048;29;20510;-80
2023/07/20 04:41:30;;;;;;;15.38;7.03;;;;;;;16.51;98.86;100746.56;4957288;28;20086;-80
2023/07/20 04:43:56;;;;;;;12.88;7.25;;;;;;;16.64;98.31;100743.22;4956927;28;20129;-80
2023/07/20 04:46:23;;;;;;;13.48;7.85;;;;;;;16.76;97.84;100746.97;4957593;29;20051;-80
2023/07/20 04:48:50;;;;;;;13.50;8.15;;;;;;;17.01;97.08;100743.88;4957734;29;20047;-80
2023/07/20 04:51:20;;;;;;;12.07;7.97;;;;;;;17.01;96.38;100749.16;4958067;29;20124;-80
2023/07/20 04:53:47;;;;;;;12.27;7.68;;;;;;;17.24;95.41;100749.66;4961905;29;20416;-80
2023/07/20 04:56:14;;;;;;;13.73;8.02;;;;;;;17.05;94.88;100742.44;4959503;29;20130;-79
2023/07/20 04:58:41;;;;;;;12.55;7.50;;;;;;;17.08;95.58;100742.84;4960220;29;20526;-79
2023/07/20 05:01:08;;;;;;;9.23;6.72;;;;;;;17.09;95.57;100752.44;4956985;28;20134;-80
2023/07/20 05:03:35;;;;;;;12.43;7.25;;;;;;;17.19;95.07;100747.59;4958274;29;20146;-79
2023/07/20 05:06:02;;;;;;;20.63;8.23;;;;;;;17.11;95.15;100746.94;4959258;29;20127;-79
2023/07/20 05:08:29;;;;;;;12.93;8.07;;;;;;;17.11;95.31;100747.75;4957084;29;20141;-81
2023/07/20 05:10:55;;;;;;;15.38;8.18;;;;;;;17.18;95.25;100747.78;4957174;29;20051;-81
2023/07/20 05:13:22;;;;;;;14.23;8.38;;;;;;;17.19;95.33;100749.44;4955874;29;20078;-79
2023/07/20 05:15:53;;;;;;;14.18;8.00;;;;;;;17.33;94.95;100745.84;4957407;29;20098;-81
2023/07/20 05:18:20;;;;;;;13.85;8.63;;;;;;;17.46;94.69;100745.09;4957056;28;20527;-81
2023/07/20 05:20:47;;;;;;;16.20;9.15;;;;;;;17.63;94.04;100748.16;4957108;29;20515;-79
2023/07/20 05:23:14;;;;;;;15.32;8.68;;;;;;;17.70;93.44;100752.50;4957655;29;20048;-80
2023/07/20 05:25:40;;;;;;;15.38;8.05;;;;;;;17.74;93.21;100747.63;4957551;29;20129;-81
2023/07/20 05:28:07;;;;;;;16.10;8.25;;;;;;;18.39;91.31;100754.03;4957389;29;20742;-79
2023/07/20 05:30:34;;;;;;;15.40;8.00;;;;;;;18.72;88.99;100741.59;4956636;29;20051;-79
2023/07/20 05:33:02;;;;;;;14.48;7.70;;;;;;;19.01;87.27;100736.81;4956797;28;20075;-81
2023/07/20 05:35:28;;;;;;;11.43;7.30;;;;;;;19.13;86.18;100729.84;4956680;29;20478;-79
2023/07/20 05:37:55;;;;;;;14.35;7.85;;;;;;;19.09;85.49;100740.06;4956596;29;20135;-77
2023/07/20 05:40:21;;;;;;;10.98;7.70;;;;;;;19.49;84.62;100731.94;4957494;29;20055;-78
2023/07/20 05:42:51;;;;;;;14.00;8.32;;;;;;;19.66;83.43;100732.28;4956172;29;20081;-80
2023/07/20 05:45:18;;;;;;;13.93;8.27;;;;;;;20.10;82.06;100734.03;4956299;29;20047;-80
2023/07/20 05:47:45;;;;;;;13.98;8.45;;;;;;;20.47;80.61;100735.78;4956369;29;20062;-80
2023/07/20 05:50:13;;;;;;;10.73;8.23;;;;;;;20.72;79.27;100727.81;4956477;28;20162;-80
2023/07/20 05:52:40;;;;;;;16.73;8.25;;;;;;;20.78;79.13;100736.75;4950387;29;20134;-80
2023/07/20 05:55:08;;;;;;;13.98;8.50;;;;;;;20.67;79.19;100746.25;4958117;28;20079;-80
2023/07/20 05:57:35;;;;;;;12.18;8.95;;;;;;;20.56;78.71;100732.88;4960302;28;20138;-81
2023/07/20 06:00:02;;;;;;;12.32;8.45;;;;;;;20.76;78.88;100734.31;4960147;29;20057;-80
2023/07/20 06:02:29;;;;;;;14.27;8.38;;;;;;;20.92;78.29;100732.06;4961310;29;20443;-81
2023/07/20 06:04:56;;;;;;;13.18;8.45;;;;;;;21.75;75.57;100732.28;4961191;29;20058;-80
2023/07/20 06:07:24;;;;;;;15.60;9.18;;;;;;;21.26;75.99;100741.34;4958311;29;20055;-80
2023/07/20 06:09:50;;;;;;;13.88;9.15;;;;;;;21.43;76.40;100745.00;4959887;29;20082;-81
2023/07/20 06:12:17;;;;;;;13.10;8.73;;;;;;;21.84;74.84;100746.91;4959131;29;20368;-79
2023/07/20 06:14:44;;;;;;;12.18;8.23;;;;;;;23.00;71.49;100738.22;4959047;29;20139;-79
2023/07/20 06:17:10;;;;;;;15.82;9.25;;;;;;;22.48;71.81;100747.97;4959962;29;20150;-81
2023/07/20 06:19:37;;;;;;;12.00;10.00;;;;;;;20.92;75.61;100745.38;4959554;29;20047;-79
2023/07/20 06:22:04;;;;;;;14.02;9.52;;;;;;;20.17;78.60;100756.88;4959037;28;20603;-78
2023/07/20 06:24:32;;;;;;;11.48;9.98;;;;;;;19.53;81.43;100754.41;4959965;28;20138;-79
2023/07/20 06:26:58;;;;;;;14.57;10.00;;;;;;;19.11;83.43;100755.75;4958426;29;20043;-80
2023/07/20 06:29:25;;;;;;;16.92;11.00;;;;;;;20.18;81.81;100747.88;4959253;28;20043;-82
2023/07/20 06:31:51;;;;;;;15.00;9.65;;;;;;;21.58;77.20;100752.63;4956495;28;20108;-80
2023/07/20 06:34:19;;;;;;;15.00;10.13;;;;;;;21.70;75.55;100745.50;4958250;29;20051;-80
2023/07/20 06:36:45;;;;;;;18.88;9.32;;;;;;;22.34;73.43;100734.06;4958269;29;20070;-80
2023/07/20 06:39:12;;;;;;;13.43;8.85;;;;;;;23.10;70.87;100735.78;4958302;29;20408;-81
2023/07/20 06:41:40;;;;;;;12.75;9.30;;;;;;;22.07;72.92;100747.00;4959762;29;20111;-79
2023/07/20 06:44:07;;;;;;;15.20;10.30;;;;;;;20.78;76.16;100734.91;4958861;28;20066;-79
2023/07/20 06:46:34;;;;;;;15.88;9.77;;;;;;;20.28;79.11;100747.41;4957096;28;20055;-79
2023/07/20 06:49:01;;;;;;;13.38;10.05;;;;;;;19.61;81.26;100751.50;4957744;28;20047;-79
2023/07/20 06:51:27;;;;;;;18.52;11.73;;;;;;;19.62;82.23;100744.34;4960429;28;20055;-79
2023/07/20 06:53:54;;;;;;;14.60;10.48;;;;;;;19.42;82.66;100755.84;4957092;28;20074;-78
2023/07/20 06:56:21;;;;;;;19.23;11.63;;;;;;;19.28;83.44;100754.28;4957389;29;20098;-75
2023/07/20 06:58:49;;;;;;;13.63;10.52;;;;;;;18.99;84.56;100754.78;4957622;28;20511;-79
2023/07/20 07:01:16;;;;;;;17.27;11.38;;;;;;;18.98;85.21;100753.97;4957591;29;20129;-78
2023/07/20 07:03:43;;;;;;;15.30;12.25;;;;;;;19.40;84.19;100767.69;4955855;29;20043;-78
2023/07/20 07:06:10;;;;;;;13.95;11.02;;;;;;;20.31;80.72;100756.78;4960654;28;20127;-78
2023/07/20 07:08:37;;;;;;;14.32;10.77;;;;;;;20.34;80.44;100756.31;4965080;28;20067;-77
2023/07/20 07:11:03;;;;;;;16.98;11.82;;;;;;;20.79;78.12;100754.34;4972558;28;20089;-81
2023/07/20 07:13:30;;;;;;;15.25;10.27;;;;;;;21.93;75.63;100756.19;4960769;28;20056;-78
2023/07/20 07:15:58;;;;;;;12.98;9.75;;;;;;;22.61;72.46;100752.28;4958775;28;20169;-79
2023/07/20 07:18:26;;;;;;;12.85;9.00;;;;;;;21.73;72.66;100753.03;4959291;28;20051;-79
2023/07/20 07:20:53;;;;;;;10.70;8.30;;;;;;;21.15;74.22;100756.19;4959383;28;20070;-79
2023/07/20 07:23:20;;;;;;;12.02;8.20;;;;;;;20.76;74.87;100749.44;4959176;28;20058;-79
2023/07/20 07:25:47;;;;;;;12.18;7.45;;;;;;;20.34;76.07;100765.09;4962225;28;20054;-77
2023/07/20 07:28:14;;;;;;;11.95;8.85;;;;;;;21.19;75.72;100770.66;4960372;28;20043;-79
2023/07/20 07:30:41;;;;;;;11.10;8.82;;;;;;;21.65;73.11;100753.34;4961239;28;20138;-76
2023/07/20 07:33:09;;;;;;;13.75;9.20;;;;;;;21.79;72.41;100760.09;4970696;28;20142;-79
2023/07/20 07:35:36;;;;;;;12.13;9.27;;;;;;;21.63;73.30;100761.56;4968438;28;20047;-80
2023/07/20 07:38:03;;;;;;;10.90;8.40;;;;;;;23.45;70.10;100770.38;4965023;28;20512;-77
2023/07/20 07:40:29;;;;;;;7.97;6.95;;;;;;;24.91;64.58;100773.09;4967752;28;20047;-78
2023/07/20 07:42:56;;;;;;;7.60;6.45;;;;;;;24.83;62.58;100775.38;4960139;28;20063;-78
2023/07/20 07:45:23;;;;;;;12.05;6.78;;;;;;;24.32;63.50;100774.63;4964432;28;20054;-77
2023/07/20 07:47:49;;;;;;;10.65;7.03;;;;;;;22.69;67.11;100782.06;4967129;28;20515;-79
2023/07/20 07:50:17;;;;;;;11.07;6.53;;;;;;;23.00;67.78;100772.09;4964419;29;20067;-77
2023/07/20 07:52:44;;;;;;;10.13;5.50;;;;;;;23.54;64.89;100778.03;4955005;29;20110;-77
2023/07/20 07:55:10;;;;;;;6.00;4.47;;;;;;;24.70;62.42;100776.53;4953929;29;20134;-76
2023/07/20 07:57:37;;;;;;;6.82;5.30;;;;;;;24.77;61.11;100769.16;4960313;29;20463;-78
2023/07/20 08:00:05;;;;;;;8.15;5.00;;;;;;;25.56;60.76;100779.53;4958662;29;20411;-78
2023/07/20 08:02:32;;;;;;;9.00;6.80;;;;;;;25.73;60.19;100780.28;4951994;29;20071;-78
2023/07/20 08:05:00;;;;;;;8.15;6.38;;;;;;;25.88;60.77;100783.13;4957394;29;20058;-78
2023/07/20 08:07:28;;;;;;;11.23;6.65;;;;;;;25.72;60.50;100781.34;4960963;28;20051;-78
2023/07/20 08:09:55;;;;;;;10.18;6.90;;;;;;;24.28;61.91;100786.84;4963337;29;20071;-76
2023/07/20 08:12:22;;;;;;;9.20;6.65;;;;;;;23.15;65.78;100778.59;4959292;28;20070;-78
2023/07/20 08:14:49;;;;;;;9.15;6.97;;;;;;;23.85;65.38;100779.41;4962219;29;20412;-77
2023/07/20 08:17:15;;;;;;;10.85;6.55;;;;;;;24.84;62.24;100760.94;4955157;28;20102;-77
2023/07/20 08:19:42;;;;;;;9.27;6.88;;;;;;;25.23;61.36;100767.91;4953440;29;20047;-77
2023/07/20 08:22:08;;;;;;;9.80;5.95;;;;;;;25.91;59.76;100777.25;4955719;29;20078;-76
2023/07/20 08:24:40;;;;;;;7.72;5.82;;;;;;;26.06;58.16;100769.34;4962444;29;20051;-79
2023/07/20 08:27:08;;;;;;;8.23;5.15;;;;;;;26.60;57.71;100781.84;4963115;29;20114;-79
2023/07/20 08:29:35;;;;;;;11.43;5.22;;;;;;;26.50;57.03;100773.72;4963252;29;20051;-79
2023/07/20 08:32:01;;;;;;;7.38;5.25;;;;;;;25.78;57.33;100767.75;4955934;29;20130;-78
2023/07/20 08:34:28;;;;;;;8.25;5.10;;;;;;;24.79;59.48;100775.88;4958820;29;20078;-79
2023/07/20 08:36:54;;;;;;;8.82;5.70;;;;;;;25.24;59.84;100771.41;4957082;29;20053;-79
2023/07/20 08:39:22;;;;;;;6.53;4.60;;;;;;;25.59;58.44;100762.94;4956882;29;20122;-78
2023/07/20 08:41:51;;;;;;;9.02;5.30;;;;;;;24.83;59.24;100764.69;4952065;29;20047;-77
2023/07/20 08:44:18;;;;;;;10.23;6.03;;;;;;;25.27;58.68;100766.34;4956947;29;20050;-78
2023/07/20 08:46:46;;;;;;;6.40;4.50;;;;;;;26.78;56.68;100771.50;4954456;29;20089;-77
2023/07/20 08:49:12;;;;;;;5.85;4.00;;;;;;;25.72;55.91;100757.22;4951865;29;20047;-79
2023/07/20 08:51:41;;;;;;;8.50;4.28;;;;;;;24.38;58.25;100765.63;4951883;29;20074;-79
2023/07/20 08:54:10;;;;;;;10.57;4.70;;;;;;;24.02;60.08;100769.56;4957673;28;20055;-80
2023/07/20 08:56:38;;;;;;;7.45;4.38;;;;;;;24.43;59.89;100765.72;4956778;28;20178;-79
2023/07/20 08:59:08;;;;;;;6.82;4.50;;;;;;;25.44;57.05;100751.03;4955688;28;20086;-79
2023/07/20 09:01:37;;;;;;;6.43;4.60;;;;;;;25.33;57.64;100743.13;4955404;29;20138;-79
2023/07/20 09:04:04;;;;;;;5.95;4.22;;;;;;;24.62;57.62;100744.84;4955680;29;20153;-79
2023/07/20 09:06:31;;;;;;;7.35;4.47;;;;;;;23.99;60.02;100760.16;4955665;28;20137;-78
2023/07/20 09:08:57;;;;;;;7.85;3.80;;;;;;;24.03;60.70;100755.16;4956148;29;20051;-78
2023/07/20 09:11:24;;;;;;;6.63;4.20;;;;;;;23.58;62.23;100757.81;4956737;29;20137;-79
2023/07/20 09:14:03;;;;;;;5.75;4.20;;;;;;;23.31;62.72;100763.66;4956617;29;20129;-78
2023/07/20 09:16:32;;;;;;;6.65;3.30;;;;;;;22.83;60.58;100747.97;4951030;29;20077;-78
2023/07/20 09:18:59;;;;;;;6.60;3.75;;;;;;;23.52;59.04;100740.03;4958421;29;20047;-78
2023/07/20 09:21:30;;;;;;;8.57;4.00;;;;;;;23.81;58.91;100734.47;4958157;28;20150;-80
2023/07/20 09:23:58;;;;;;;4.75;3.78;;;;;;;24.89;57.78;100740.41;4949878;29;20522;-79
2023/07/20 09:26:24;;;;;;;5.85;4.10;;;;;;;25.52;56.66;100735.56;4953766;29;20138;-78
2023/07/20 09:28:54;;;;;;;6.10;3.60;;;;;;;24.85;57.16;100739.28;4956026;28;20134;-79
2023/07/20 09:31:22;;;;;;;7.10;4.20;;;;;;;24.69;58.28;100742.81;4957268;29;20050;-78
2023/07/20 09:33:53;;;;;;;5.20;4.32;;;;;;;25.40;56.91;100733.03;4951614;29;20138;-79
2023/07/20 09:36:20;;;;;;;7.75;4.30;;;;;;;24.83;58.20;100748.63;4955732;29;20106;-77
2023/07/20 09:38:47;;;;;;;6.55;4.40;;;;;;;25.37;57.76;100752.28;4956016;29;20295;-79
2023/07/20 09:41:15;;;;;;;6.32;4.68;;;;;;;25.04;56.29;100721.91;4956012;29;20134;-79
2023/07/20 09:43:42;;;;;;;5.53;3.20;;;;;;;25.43;56.18;100748.59;4952117;29;20059;-80
2023/07/20 09:46:09;;;;;;;4.65;3.40;;;;;;;25.18;55.59;100725.00;4955454;28;20051;-77
2023/07/20 09:48:35;;;;;;;5.28;3.15;;;;;;;24.57;56.48;100728.75;4957936;28;20130;-79
2023/07/20 09:51:05;;;;;;;3.83;3.13;;;;;;;24.21;57.00;100727.34;4954981;29;20045;-79
2023/07/20 09:53:33;;;;;;;4.30;3.10;;;;;;;24.89;56.22;100734.25;4954876;29;20051;-79
2023/07/20 09:56:00;;;;;;;5.00;3.28;;;;;;;25.46;55.68;100735.50;4952486;29;20143;-79
2023/07/20 09:58:27;;;;;;;5.72;3.10;;;;;;;25.90;56.29;100730.06;4957151;29;20058;-80
2023/07/20 10:00:57;;;;;;;4.65;3.10;;;;;;;25.93;54.09;100724.19;4949871;29;20043;-79
2023/07/20 10:03:29;;;;;;;3.47;2.95;;;;;;;25.25;54.36;100708.75;4956475;29;20130;-79
2023/07/20 10:05:59;;;;;;;3.10;2.80;;;;;;;24.95;54.71;100717.22;4955115;29;20079;-79
2023/07/20 10:08:31;;;;;;;4.00;3.33;;;;;;;25.43;55.20;100725.28;4955609;29;20445;-79
2023/07/20 10:11:00;;;;;;;6.55;3.60;;;;;;;24.43;56.87;100725.59;4953343;29;20050;-79
2023/07/20 10:13:28;;;;;;;7.88;3.65;;;;;;;24.42;57.66;100732.00;4957852;28;20054;-78
2023/07/20 10:15:59;;;;;;;5.65;3.10;;;;;;;23.86;57.73;100727.59;4958830;28;20126;-80
2023/07/20 10:18:30;;;;;;;5.25;2.63;;;;;;;23.96;56.25;100717.88;4955255;29;20114;-79
2023/07/20 10:21:00;;;;;;;5.65;2.95;;;;;;;23.82;56.42;100720.06;4957452;29;20126;-79
2023/07/20 10:23:30;;;;;;;5.65;3.15;;;;;;;24.09;57.62;100722.09;4954248;29;20115;-78
2023/07/20 10:25:58;;;;;;;5.00;3.30;;;;;;;24.65;56.51;100721.09;4957390;29;20047;-78
2023/07/20 10:28:25;;;;;;;3.45;3.00;;;;;;;24.83;55.88;100716.50;4950880;29;20047;-78
2023/07/20 10:30:52;;;;;;;4.25;3.03;;;;;;;25.59;55.28;100714.72;4950590;29;20048;-79
2023/07/20 10:33:22;;;;;;;6.00;3.20;;;;;;;25.58;54.16;100705.06;4955622;29;20112;-79
2023/07/20 10:35:52;;;;;;;5.28;3.40;;;;;;;24.35;55.27;100699.25;4957406;29;20043;-79
2023/07/20 10:38:19;;;;;;;4.40;3.20;;;;;;;24.81;56.02;100706.06;4956397;29;20070;-80
2023/07/20 10:40:57;;;;;;;4.43;3.25;;;;;;;24.86;54.99;100697.28;4956016;28;20067;-80
2023/07/20 10:43:23;;;;;;;4.22;2.97;;;;;;;24.90;55.23;100691.19;4955814;29;20039;-77
2023/07/20 10:45:51;;;;;;;3.38;3.08;;;;;;;25.70;54.31;100695.03;4954518;29;20075;-81
2023/07/20 10:48:20;;;;;;;4.88;3.15;;;;;;;25.25;54.13;100693.47;4956013;29;20508;-81
2023/07/20 10:51:07;;;;;;;3.42;2.90;;;;;;;24.85;55.45;100687.63;4958081;28;20052;-79
2023/07/20 10:53:33;;;;;;;4.13;3.05;;;;;;;24.59;53.98;100667.75;4955332;29;20057;-79
2023/07/20 10:56:12;;;;;;;5.85;3.13;;;;;;;24.75;54.49;100674.94;4957312;29;20082;-79
2023/07/20 10:58:38;;;;;;;4.15;2.47;;;;;;;24.93;55.24;100681.84;4959546;28;20124;-79
2023/07/20 11:01:06;;;;;;;3.10;2.67;;;;;;;24.88;55.22;100673.75;4953011;29;20146;-81
2023/07/20 11:03:34;;;;;;;7.68;2.70;;;;;;;24.92;54.25;100675.69;4958118;28;20074;-81
2023/07/20 11:06:34;;;;;;;6.10;3.00;;;;;;;25.92;52.69;100671.63;4958646;28;20146;-81
2023/07/20 11:09:07;;;;;;;4.07;2.85;;;;;;;26.22;52.55;100679.09;4910421;29;20044;-82
2023/07/20 11:11:36;;;;;;;5.05;3.10;;;;;;;25.55;52.33;100665.38;4908866;29;20441;-81
2023/07/20 11:14:04;;;;;;;6.05;3.05;;;;;;;25.47;52.36;100669.34;4934520;28;20170;-81
2023/07/20 11:16:36;;;;;;;5.72;3.20;;;;;;;25.56;52.34;100667.00;4958604;29;20138;-82
2023/07/20 11:19:03;;;;;;;4.40;2.80;;;;;;;25.44;53.50;100681.38;4958258;29;20126;-79
2023/07/20 11:21:31;;;;;;;3.45;2.90;;;;;;;24.96;53.91;100670.69;4958222;28;20737;-83
2023/07/20 11:23:57;;;;;;;3.22;2.63;;;;;;;24.65;54.10;100678.28;4958547;29;20451;-83